LSZB Airport Information

Runway Information
Runway 14 Length 5676 ft width 98 ft
Elevation 1668 ft Threshold 656 ft Heading 140
Runway 32 Length 5676 ft Width 98 ft
Elevation 1674 ft Threshold 360 ft Heading 320
Runway 14R Length 2125 ft width 98 ft
Elevation ft Threshold ft Heading 140
Runway 32L Length 2125 ft Width 98 ft
Elevation ft Threshold ft Heading 320
Runway 14L Length 2133 ft width 98 ft
Elevation ft Threshold ft Heading 140
Runway 32R Length 2133 ft Width 98 ft
Elevation ft Threshold ft Heading 320
Airport Frequencies
Type A/D Name APP/DEP Frequency 127.325 MHZ
Type ATIS Name ATIS Frequency 125.125 MHZ
Type MISC Name GLIDER Frequency 123.4 MHZ
Type OPS Name ALPAR Frequency 135.75 MHZ
Type TWR Name TWR Frequency 121.025 MHZ
Airport Navaids
Type NDB Name Bern Frequency 335 KHZ
Type NDB Name Muri Frequency 312 KHZ
Type NDB Name Schupberg Frequency 357 KHZ
Airport Weather Information & NOTAM
ADDS - METARS form results

(2003 UTC 10 August 2022)
Data provider http://aviationweather.gov/metar/data/
 
METAR text: LSZB 101950Z AUTO VRB02KT 9999 NCD 22/10 Q1020
Conditions at: LSZB (BERN/BELP , CH) observed 1950 UTC 10 August 2022
Temperature: 22.0°C (72°F)
Dewpoint: 10.0°C (50°F) [RH = 46%]
Pressure (altimeter): 30.12 inches Hg (1020.0 mb)
Winds: variable direction winds at 2 MPH (2 knots; 1.0 m/s)
Visibility: 6 or more miles (10+ km)
Ceiling: at least 12,000 feet AGL
Clouds: sky clear below 12,000 feet AGL
Weather: no significant weather observed at this time

METAR text: LSZB 101920Z VRB02KT CAVOK 24/10 Q1020
Conditions at: LSZB (BERN/BELP , CH) observed 1920 UTC 10 August 2022
Temperature: 24.0°C (75°F)
Dewpoint: 10.0°C (50°F) [RH = 41%]
Pressure (altimeter): 30.12 inches Hg (1020.0 mb)
Winds: variable direction winds at 2 MPH (2 knots; 1.0 m/s)
Visibility: 6 or more miles (10+ km)
Ceiling: ceiling and visibility are OK
Clouds: unknown
Weather: no significant weather observed at this time

Forecast for: LSZB (BERN/BELP , CH)
Text: TAF LSZB 101425Z 1015/1024 33005KT CAVOK
Forecast period: 1500 UTC 10 August 2022 to 0000 UTC 11 August 2022
Forecast type: FROM: standard forecast or significant change
Winds: from the NNW (330 degrees) at 6 MPH (5 knots; 2.6 m/s)
Visibility: 6 or more miles (10+ km)
Ceiling: unknown
Clouds: missing
Weather: NSW  (no significant weather)